Impacts METAR Board
IDs:

KGTU - Georgetown Muni, TX, US

Updated at: 0900 UTC 26 May 2019
Potential Impact None Slight Moderate High
Time 25/21Z 25/22Z 25/23Z 26/00Z 26/01Z 26/02Z 26/03Z 26/04Z 26/05Z 26/06Z 26/07Z 26/08Z 26/09Z
Temp89 89 87 87 84 81 80 78 76 75 74 74 73
Dewpt71 70 70 69 68 67 66 67 67 69 70 70 70
Altim30.00 29.99 29.98 29.98 29.98 30.00 30.00 30.02 30.03 30.04 30.04 30.03 30.03
VIS10 10 10 10 10 10 10 10 10 10 10 10 10
CIG60 60 44 -- -- -- -- -- -- -- 13 26 13
CoverBKNBKNBKNCLRFEWCLRCLRCLRCLRCLROVCBKNBKN
FltCatVFRVFRVFRVFRVFRVFRVFRVFRVFRVFRMVFRMVFRMVFR
WX--------------------------
WDir150150150160150150150150160170160160160
WSpd12 14 12 12 9 8 10 11 10 12 6 10 8
WGst19 19 -- 18 18 16 -- 17 -- 20 -- 15 --
Raw hourly METARs
KGTU 252056Z 15012G19KT 10SM FEW045 BKN060 32/22 A3000 RMK AO2 SLP152 T03170217 58015
KGTU 252156Z 15014G19KT 10SM SCT043 BKN060 32/21 A2999 RMK AO2 SLP148 T03170211
KGTU 252256Z 15012KT 10SM BKN044 31/21 A2998 RMK AO2 SLP146 T03060211
KGTU 252356Z 16012G18KT 10SM CLR 31/21 A2998 RMK AO2 SLP145 T03060206 10317 20294 56006
KGTU 260056Z 15009G18KT 10SM FEW043 29/20 A2998 RMK AO2 SLP147 T02890200
KGTU 260156Z 15008G16KT 10SM CLR 27/19 A3000 RMK AO2 SLP150 T02720194
KGTU 260256Z AUTO 15010KT 10SM CLR 27/19 A3000 RMK AO2 SLP153 T02670189 53008
KGTU 260356Z AUTO 15011G17KT 10SM CLR 26/19 A3002 RMK AO2 SLP159 T02560194
KGTU 260456Z AUTO 16010KT 10SM CLR 24/19 A3003 RMK AO2 SLP164 T02440194
KGTU 260556Z AUTO 17012G20KT 10SM CLR 24/21 A3004 RMK AO2 SLP166 T02390206 10306 20239 403170233 51011
KGTU 260656Z AUTO 16006KT 10SM OVC013 23/21 A3004 RMK AO2 SLP166 T02330211
KGTU 260756Z AUTO 16010G15KT 10SM SCT015 BKN026 BKN031 23/21 A3003 RMK AO2 SLP162 T02330211
KGTU 260856Z AUTO 16008KT 10SM BKN013 23/21 A3003 RMK AO2 SLP163 T02280211 55001